sensor_id;sensor_type;location;lat;lon;timestamp;temperature;humidity
423;DHT22;198;48.752;9.180;2023-04-08T00:00:35;9.70;99.90
423;DHT22;198;48.752;9.180;2023-04-08T00:03:01;9.80;99.90
423;DHT22;198;48.752;9.180;2023-04-08T00:05:27;9.80;99.90
423;DHT22;198;48.752;9.180;2023-04-08T00:07:53;9.80;99.90
423;DHT22;198;48.752;9.180;2023-04-08T00:10:18;9.70;99.90
423;DHT22;198;48.752;9.180;2023-04-08T00:12:46;9.80;99.90
423;DHT22;198;48.752;9.180;2023-04-08T00:15:12;9.70;99.90
423;DHT22;198;48.752;9.180;2023-04-08T00:17:37;9.80;99.90
423;DHT22;198;48.752;9.180;2023-04-08T00:20:03;9.80;99.90
423;DHT22;198;48.752;9.180;2023-04-08T00:22:29;9.70;99.90
423;DHT22;198;48.752;9.180;2023-04-08T00:24:56;9.70;99.90
423;DHT22;198;48.752;9.180;2023-04-08T00:27:22;9.70;99.90
423;DHT22;198;48.752;9.180;2023-04-08T00:29:49;9.70;99.90
423;DHT22;198;48.752;9.180;2023-04-08T00:32:15;9.60;99.90
423;DHT22;198;48.752;9.180;2023-04-08T00:34:40;9.60;99.90
423;DHT22;198;48.752;9.180;2023-04-08T00:37:06;9.60;99.90
423;DHT22;198;48.752;9.180;2023-04-08T00:39:32;9.60;99.90
423;DHT22;198;48.752;9.180;2023-04-08T00:41:57;9.60;99.90
423;DHT22;198;48.752;9.180;2023-04-08T00:44:23;9.60;99.90
423;DHT22;198;48.752;9.180;2023-04-08T00:46:48;9.50;99.90
423;DHT22;198;48.752;9.180;2023-04-08T00:49:14;9.40;99.90
423;DHT22;198;48.752;9.180;2023-04-08T00:51:39;9.40;99.90
423;DHT22;198;48.752;9.180;2023-04-08T00:54:05;9.40;99.90
423;DHT22;198;48.752;9.180;2023-04-08T00:56:32;9.40;99.90
423;DHT22;198;48.752;9.180;2023-04-08T00:59:00;9.50;99.90
423;DHT22;198;48.752;9.180;2023-04-08T01:01:47;9.50;99.90
423;DHT22;198;48.752;9.180;2023-04-08T01:09:49;9.40;99.90
423;DHT22;198;48.752;9.180;2023-04-08T01:12:32;9.30;99.90
423;DHT22;198;48.752;9.180;2023-04-08T01:15:05;9.30;99.90
423;DHT22;198;48.752;9.180;2023-04-08T01:17:33;9.20;99.90
423;DHT22;198;48.752;9.180;2023-04-08T01:20:00;9.30;99.90
423;DHT22;198;48.752;9.180;2023-04-08T01:25:33;9.30;99.90
423;DHT22;198;48.752;9.180;2023-04-08T01:28:00;9.20;99.90
423;DHT22;198;48.752;9.180;2023-04-08T01:30:28;9.20;99.90
423;DHT22;198;48.752;9.180;2023-04-08T01:32:55;9.10;99.90
423;DHT22;198;48.752;9.180;2023-04-08T01:35:22;9.10;99.90
423;DHT22;198;48.752;9.180;2023-04-08T01:37:49;9.10;99.90
423;DHT22;198;48.752;9.180;2023-04-08T01:40:17;9.10;99.90
423;DHT22;198;48.752;9.180;2023-04-08T01:42:44;9.00;99.90
423;DHT22;198;48.752;9.180;2023-04-08T01:45:11;9.00;99.90
423;DHT22;198;48.752;9.180;2023-04-08T01:47:37;9.00;99.90
423;DHT22;198;48.752;9.180;2023-04-08T01:50:04;9.00;99.90
423;DHT22;198;48.752;9.180;2023-04-08T01:52:31;9.00;99.90
423;DHT22;198;48.752;9.180;2023-04-08T01:54:59;8.90;99.90
423;DHT22;198;48.752;9.180;2023-04-08T01:57:27;8.90;99.90
423;DHT22;198;48.752;9.180;2023-04-08T01:59:59;8.90;99.90
423;DHT22;198;48.752;9.180;2023-04-08T02:02:26;8.90;99.90
423;DHT22;198;48.752;9.180;2023-04-08T02:04:53;8.90;99.90
423;DHT22;198;48.752;9.180;2023-04-08T02:07:19;8.90;99.90
423;DHT22;198;48.752;9.180;2023-04-08T02:09:45;8.90;99.90
423;DHT22;198;48.752;9.180;2023-04-08T02:12:11;8.90;99.90
423;DHT22;198;48.752;9.180;2023-04-08T02:14:36;8.90;99.90
423;DHT22;198;48.752;9.180;2023-04-08T02:17:10;8.90;99.90
423;DHT22;198;48.752;9.180;2023-04-08T02:19:52;8.90;99.90
423;DHT22;198;48.752;9.180;2023-04-08T02:25:14;8.90;99.90
423;DHT22;198;48.752;9.180;2023-04-08T02:27:40;8.80;99.90
423;DHT22;198;48.752;9.180;2023-04-08T02:30:07;8.80;99.90
423;DHT22;198;48.752;9.180;2023-04-08T02:32:33;8.80;99.90
423;DHT22;198;48.752;9.180;2023-04-08T02:35:00;8.80;99.90
423;DHT22;198;48.752;9.180;2023-04-08T02:37:28;8.80;99.90
423;DHT22;198;48.752;9.180;2023-04-08T02:39:54;8.80;99.90
423;DHT22;198;48.752;9.180;2023-04-08T02:42:20;8.80;99.90
423;DHT22;198;48.752;9.180;2023-04-08T02:44:45;8.70;99.90
423;DHT22;198;48.752;9.180;2023-04-08T02:47:11;8.70;99.90
423;DHT22;198;48.752;9.180;2023-04-08T02:49:36;8.70;99.90
423;DHT22;198;48.752;9.180;2023-04-08T02:52:02;8.70;99.90
423;DHT22;198;48.752;9.180;2023-04-08T02:54:27;8.80;99.90
423;DHT22;198;48.752;9.180;2023-04-08T02:56:53;8.80;99.90
423;DHT22;198;48.752;9.180;2023-04-08T02:59:18;8.70;99.90
423;DHT22;198;48.752;9.180;2023-04-08T03:01:44;8.70;99.90
423;DHT22;198;48.752;9.180;2023-04-08T03:04:09;8.80;99.90
423;DHT22;198;48.752;9.180;2023-04-08T03:06:35;8.80;99.90
423;DHT22;198;48.752;9.180;2023-04-08T03:09:01;8.80;99.90
423;DHT22;198;48.752;9.180;2023-04-08T03:11:26;8.70;99.90
423;DHT22;198;48.752;9.180;2023-04-08T03:13:52;8.70;99.90
423;DHT22;198;48.752;9.180;2023-04-08T03:16:17;8.70;99.90
423;DHT22;198;48.752;9.180;2023-04-08T03:18:43;8.60;99.90
423;DHT22;198;48.752;9.180;2023-04-08T03:21:08;8.60;99.90
423;DHT22;198;48.752;9.180;2023-04-08T03:23:34;8.60;99.90
423;DHT22;198;48.752;9.180;2023-04-08T03:25:59;8.60;99.90
423;DHT22;198;48.752;9.180;2023-04-08T03:28:25;8.60;99.90
423;DHT22;198;48.752;9.180;2023-04-08T03:30:50;8.60;99.90
423;DHT22;198;48.752;9.180;2023-04-08T03:33:16;8.60;99.90
423;DHT22;198;48.752;9.180;2023-04-08T03:35:41;8.60;99.90
423;DHT22;198;48.752;9.180;2023-04-08T03:38:07;8.60;99.90
423;DHT22;198;48.752;9.180;2023-04-08T03:40:32;8.60;99.90
423;DHT22;198;48.752;9.180;2023-04-08T03:42:58;8.60;99.90
423;DHT22;198;48.752;9.180;2023-04-08T03:45:23;8.60;99.90
423;DHT22;198;48.752;9.180;2023-04-08T03:47:49;8.60;99.90
423;DHT22;198;48.752;9.180;2023-04-08T03:50:14;8.60;99.90
423;DHT22;198;48.752;9.180;2023-04-08T03:52:40;8.60;99.90
423;DHT22;198;48.752;9.180;2023-04-08T03:55:06;8.70;99.90
423;DHT22;198;48.752;9.180;2023-04-08T03:57:31;8.70;99.90
423;DHT22;198;48.752;9.180;2023-04-08T03:59:57;8.80;99.90
423;DHT22;198;48.752;9.180;2023-04-08T04:02:23;8.80;99.90
423;DHT22;198;48.752;9.180;2023-04-08T04:04:48;8.90;99.90
423;DHT22;198;48.752;9.180;2023-04-08T04:07:14;9.00;99.90
423;DHT22;198;48.752;9.180;2023-04-08T04:09:40;9.00;99.90
423;DHT22;198;48.752;9.180;2023-04-08T04:12:06;9.00;99.90
423;DHT22;198;48.752;9.180;2023-04-08T04:14:31;9.00;99.90
423;DHT22;198;48.752;9.180;2023-04-08T04:16:57;9.00;99.90
423;DHT22;198;48.752;9.180;2023-04-08T04:19:22;8.90;99.90
423;DHT22;198;48.752;9.180;2023-04-08T04:21:48;8.90;99.90
423;DHT22;198;48.752;9.180;2023-04-08T04:24:13;9.00;99.90
423;DHT22;198;48.752;9.180;2023-04-08T04:26:41;9.00;99.90
423;DHT22;198;48.752;9.180;2023-04-08T04:29:07;8.90;99.90
423;DHT22;198;48.752;9.180;2023-04-08T04:31:32;8.80;99.90
423;DHT22;198;48.752;9.180;2023-04-08T04:33:58;8.70;99.90
423;DHT22;198;48.752;9.180;2023-04-08T04:36:23;8.70;99.90
423;DHT22;198;48.752;9.180;2023-04-08T04:38:49;8.70;99.90
423;DHT22;198;48.752;9.180;2023-04-08T04:41:15;8.70;99.90
423;DHT22;198;48.752;9.180;2023-04-08T04:43:41;8.70;99.90
423;DHT22;198;48.752;9.180;2023-04-08T04:46:06;8.60;99.90
423;DHT22;198;48.752;9.180;2023-04-08T04:48:36;8.60;99.90
423;DHT22;198;48.752;9.180;2023-04-08T04:51:02;8.60;99.90
423;DHT22;198;48.752;9.180;2023-04-08T04:53:29;8.60;99.90
423;DHT22;198;48.752;9.180;2023-04-08T04:55:55;8.50;99.90
423;DHT22;198;48.752;9.180;2023-04-08T04:58:20;8.50;99.90
423;DHT22;198;48.752;9.180;2023-04-08T05:00:46;8.30;99.90
423;DHT22;198;48.752;9.180;2023-04-08T05:03:12;8.30;99.90
423;DHT22;198;48.752;9.180;2023-04-08T05:05:37;8.20;99.90
423;DHT22;198;48.752;9.180;2023-04-08T05:08:03;8.10;99.90
423;DHT22;198;48.752;9.180;2023-04-08T05:10:29;8.10;99.90
423;DHT22;198;48.752;9.180;2023-04-08T05:12:54;8.10;99.90
423;DHT22;198;48.752;9.180;2023-04-08T05:15:20;8.10;99.90
423;DHT22;198;48.752;9.180;2023-04-08T05:17:46;8.10;99.90
423;DHT22;198;48.752;9.180;2023-04-08T05:20:11;8.20;99.90
423;DHT22;198;48.752;9.180;2023-04-08T05:22:37;8.30;99.90
423;DHT22;198;48.752;9.180;2023-04-08T05:25:03;8.40;99.90
423;DHT22;198;48.752;9.180;2023-04-08T05:27:29;8.50;99.90
423;DHT22;198;48.752;9.180;2023-04-08T05:29:54;8.50;99.90
423;DHT22;198;48.752;9.180;2023-04-08T05:32:20;8.60;99.90
423;DHT22;198;48.752;9.180;2023-04-08T05:34:46;8.60;99.90
423;DHT22;198;48.752;9.180;2023-04-08T05:37:11;8.60;99.90
423;DHT22;198;48.752;9.180;2023-04-08T05:39:37;8.60;99.90
423;DHT22;198;48.752;9.180;2023-04-08T05:42:02;8.70;99.90
423;DHT22;198;48.752;9.180;2023-04-08T05:44:28;8.70;99.90
423;DHT22;198;48.752;9.180;2023-04-08T05:46:53;8.80;99.90
423;DHT22;198;48.752;9.180;2023-04-08T05:49:20;8.80;99.90
423;DHT22;198;48.752;9.180;2023-04-08T05:51:45;8.90;99.90
423;DHT22;198;48.752;9.180;2023-04-08T05:54:11;8.90;99.90
423;DHT22;198;48.752;9.180;2023-04-08T05:56:37;8.90;99.90
423;DHT22;198;48.752;9.180;2023-04-08T05:59:02;8.90;99.90
423;DHT22;198;48.752;9.180;2023-04-08T06:01:27;8.90;99.90
423;DHT22;198;48.752;9.180;2023-04-08T06:03:53;8.80;99.90
423;DHT22;198;48.752;9.180;2023-04-08T06:06:21;8.70;99.90
423;DHT22;198;48.752;9.180;2023-04-08T06:08:47;8.70;99.90
423;DHT22;198;48.752;9.180;2023-04-08T06:11:12;8.70;99.90
423;DHT22;198;48.752;9.180;2023-04-08T06:13:38;8.70;99.90
423;DHT22;198;48.752;9.180;2023-04-08T06:16:14;8.70;99.90
423;DHT22;198;48.752;9.180;2023-04-08T06:18:41;8.70;99.90
423;DHT22;198;48.752;9.180;2023-04-08T06:21:07;8.80;99.90
423;DHT22;198;48.752;9.180;2023-04-08T06:23:32;8.90;99.90
423;DHT22;198;48.752;9.180;2023-04-08T06:25:58;8.90;99.90
423;DHT22;198;48.752;9.180;2023-04-08T06:28:23;9.00;99.90
423;DHT22;198;48.752;9.180;2023-04-08T06:30:49;9.00;99.90
423;DHT22;198;48.752;9.180;2023-04-08T06:33:14;9.00;99.90
423;DHT22;198;48.752;9.180;2023-04-08T06:35:40;9.00;99.90
423;DHT22;198;48.752;9.180;2023-04-08T06:38:06;9.00;99.90
423;DHT22;198;48.752;9.180;2023-04-08T06:40:31;9.00;99.90
423;DHT22;198;48.752;9.180;2023-04-08T06:42:57;9.10;99.90
423;DHT22;198;48.752;9.180;2023-04-08T06:45:22;9.20;99.90
423;DHT22;198;48.752;9.180;2023-04-08T06:47:48;9.20;99.90
423;DHT22;198;48.752;9.180;2023-04-08T06:50:13;9.20;99.90
423;DHT22;198;48.752;9.180;2023-04-08T06:52:39;9.30;99.90
423;DHT22;198;48.752;9.180;2023-04-08T06:55:05;9.30;99.90
423;DHT22;198;48.752;9.180;2023-04-08T06:57:30;9.30;99.90
423;DHT22;198;48.752;9.180;2023-04-08T06:59:56;9.40;99.90
423;DHT22;198;48.752;9.180;2023-04-08T07:02:21;9.50;99.90
423;DHT22;198;48.752;9.180;2023-04-08T07:04:47;9.50;99.90
423;DHT22;198;48.752;9.180;2023-04-08T07:07:13;9.60;99.90
423;DHT22;198;48.752;9.180;2023-04-08T07:09:39;9.60;99.90
423;DHT22;198;48.752;9.180;2023-04-08T07:12:07;9.50;99.90
423;DHT22;198;48.752;9.180;2023-04-08T07:14:33;9.50;99.90
423;DHT22;198;48.752;9.180;2023-04-08T07:16:58;9.60;99.90
423;DHT22;198;48.752;9.180;2023-04-08T07:19:24;9.60;99.90
423;DHT22;198;48.752;9.180;2023-04-08T07:21:49;9.70;99.90
423;DHT22;198;48.752;9.180;2023-04-08T07:24:16;9.70;99.90
423;DHT22;198;48.752;9.180;2023-04-08T07:26:43;9.70;99.90
423;DHT22;198;48.752;9.180;2023-04-08T07:29:08;9.80;99.90
423;DHT22;198;48.752;9.180;2023-04-08T07:31:34;9.80;99.90
423;DHT22;198;48.752;9.180;2023-04-08T07:33:59;9.90;99.90
423;DHT22;198;48.752;9.180;2023-04-08T07:36:25;10.00;99.90
423;DHT22;198;48.752;9.180;2023-04-08T07:38:50;10.10;99.90
423;DHT22;198;48.752;9.180;2023-04-08T07:41:16;10.20;99.90
423;DHT22;198;48.752;9.180;2023-04-08T07:43:41;10.30;99.90
423;DHT22;198;48.752;9.180;2023-04-08T07:46:07;10.40;99.90
423;DHT22;198;48.752;9.180;2023-04-08T07:48:33;10.40;99.90
423;DHT22;198;48.752;9.180;2023-04-08T07:51:07;10.30;99.90
423;DHT22;198;48.752;9.180;2023-04-08T07:53:33;10.40;99.90
423;DHT22;198;48.752;9.180;2023-04-08T07:56:00;10.60;99.90
423;DHT22;198;48.752;9.180;2023-04-08T07:58:25;10.50;99.90
423;DHT22;198;48.752;9.180;2023-04-08T08:00:51;10.70;99.90
423;DHT22;198;48.752;9.180;2023-04-08T08:03:17;10.80;99.90
423;DHT22;198;48.752;9.180;2023-04-08T08:05:42;10.90;99.90
423;DHT22;198;48.752;9.180;2023-04-08T08:08:08;11.10;99.90
423;DHT22;198;48.752;9.180;2023-04-08T08:10:36;11.20;99.90
423;DHT22;198;48.752;9.180;2023-04-08T08:13:03;11.50;99.90
423;DHT22;198;48.752;9.180;2023-04-08T08:15:28;11.70;99.90
423;DHT22;198;48.752;9.180;2023-04-08T08:17:54;11.90;99.90
423;DHT22;198;48.752;9.180;2023-04-08T08:20:19;11.80;99.90
423;DHT22;198;48.752;9.180;2023-04-08T08:22:45;12.00;99.90
423;DHT22;198;48.752;9.180;2023-04-08T08:25:10;12.00;99.90
423;DHT22;198;48.752;9.180;2023-04-08T08:27:36;12.00;99.90
423;DHT22;198;48.752;9.180;2023-04-08T08:30:02;12.20;99.90
423;DHT22;198;48.752;9.180;2023-04-08T08:32:28;12.10;99.90
423;DHT22;198;48.752;9.180;2023-04-08T08:34:54;12.10;99.90
423;DHT22;198;48.752;9.180;2023-04-08T08:37:19;12.20;99.90
423;DHT22;198;48.752;9.180;2023-04-08T08:39:45;12.30;99.90
423;DHT22;198;48.752;9.180;2023-04-08T08:42:23;12.30;99.90
423;DHT22;198;48.752;9.180;2023-04-08T08:44:49;12.30;99.90
423;DHT22;198;48.752;9.180;2023-04-08T08:47:18;12.50;99.90
423;DHT22;198;48.752;9.180;2023-04-08T08:49:44;12.50;99.90
423;DHT22;198;48.752;9.180;2023-04-08T08:52:11;12.60;99.90
423;DHT22;198;48.752;9.180;2023-04-08T08:54:39;12.90;99.90
423;DHT22;198;48.752;9.180;2023-04-08T08:57:16;13.10;99.90
423;DHT22;198;48.752;9.180;2023-04-08T08:59:41;13.40;99.90
423;DHT22;198;48.752;9.180;2023-04-08T09:02:26;13.70;99.90
423;DHT22;198;48.752;9.180;2023-04-08T09:05:00;14.00;99.90
423;DHT22;198;48.752;9.180;2023-04-08T09:07:27;14.00;99.90
423;DHT22;198;48.752;9.180;2023-04-08T09:09:54;14.40;99.90
423;DHT22;198;48.752;9.180;2023-04-08T09:12:21;14.70;99.90
423;DHT22;198;48.752;9.180;2023-04-08T09:14:46;14.90;98.90
423;DHT22;198;48.752;9.180;2023-04-08T09:17:13;15.10;96.70
423;DHT22;198;48.752;9.180;2023-04-08T09:19:39;15.50;96.90
423;DHT22;198;48.752;9.180;2023-04-08T09:22:09;16.00;96.40
423;DHT22;198;48.752;9.180;2023-04-08T09:24:35;16.20;93.20
423;DHT22;198;48.752;9.180;2023-04-08T09:27:02;16.00;90.00
423;DHT22;198;48.752;9.180;2023-04-08T09:29:28;16.00;90.40
423;DHT22;198;48.752;9.180;2023-04-08T09:31:58;15.80;87.70
423;DHT22;198;48.752;9.180;2023-04-08T09:34:25;15.80;86.70
423;DHT22;198;48.752;9.180;2023-04-08T09:36:52;16.10;84.30
423;DHT22;198;48.752;9.180;2023-04-08T09:39:18;16.40;85.10
423;DHT22;198;48.752;9.180;2023-04-08T09:41:47;16.70;81.70
423;DHT22;198;48.752;9.180;2023-04-08T09:44:14;16.90;80.50
423;DHT22;198;48.752;9.180;2023-04-08T09:49:40;17.70;76.30
423;DHT22;198;48.752;9.180;2023-04-08T09:52:12;18.30;72.50
423;DHT22;198;48.752;9.180;2023-04-08T09:57:09;19.70;63.50
423;DHT22;198;48.752;9.180;2023-04-08T09:59:44;20.20;59.70
423;DHT22;198;48.752;9.180;2023-04-08T10:02:10;20.90;57.60
423;DHT22;198;48.752;9.180;2023-04-08T10:04:41;20.50;53.70
423;DHT22;198;48.752;9.180;2023-04-08T10:07:08;20.70;52.80
423;DHT22;198;48.752;9.180;2023-04-08T10:09:34;21.10;49.80
423;DHT22;198;48.752;9.180;2023-04-08T10:12:01;21.30;49.40
423;DHT22;198;48.752;9.180;2023-04-08T10:14:28;21.20;47.30
423;DHT22;198;48.752;9.180;2023-04-08T10:19:53;21.60;47.30
423;DHT22;198;48.752;9.180;2023-04-08T10:25:36;20.70;47.60
423;DHT22;198;48.752;9.180;2023-04-08T10:38:32;18.30;49.30
423;DHT22;198;48.752;9.180;2023-04-08T10:40:58;17.80;50.00
423;DHT22;198;48.752;9.180;2023-04-08T10:43:23;17.40;50.80
423;DHT22;198;48.752;9.180;2023-04-08T10:45:52;17.10;51.30
423;DHT22;198;48.752;9.180;2023-04-08T10:48:19;16.90;51.60
423;DHT22;198;48.752;9.180;2023-04-08T10:50:58;16.50;52.20
423;DHT22;198;48.752;9.180;2023-04-08T10:53:35;16.10;52.30
423;DHT22;198;48.752;9.180;2023-04-08T10:56:10;15.50;53.00
423;DHT22;198;48.752;9.180;2023-04-08T10:58:51;15.30;54.40
423;DHT22;198;48.752;9.180;2023-04-08T11:01:17;15.00;54.20
423;DHT22;198;48.752;9.180;2023-04-08T11:03:42;14.80;54.70
423;DHT22;198;48.752;9.180;2023-04-08T11:06:08;14.60;55.20
423;DHT22;198;48.752;9.180;2023-04-08T11:08:35;14.50;55.50
423;DHT22;198;48.752;9.180;2023-04-08T11:11:04;14.60;54.80
423;DHT22;198;48.752;9.180;2023-04-08T11:13:34;14.30;55.20
423;DHT22;198;48.752;9.180;2023-04-08T11:16:01;14.30;56.20
423;DHT22;198;48.752;9.180;2023-04-08T11:18:29;14.20;55.90
423;DHT22;198;48.752;9.180;2023-04-08T11:20:56;14.00;56.70
423;DHT22;198;48.752;9.180;2023-04-08T11:23:23;14.10;57.40
423;DHT22;198;48.752;9.180;2023-04-08T11:25:49;14.30;56.40
423;DHT22;198;48.752;9.180;2023-04-08T11:28:15;14.30;55.30
423;DHT22;198;48.752;9.180;2023-04-08T11:30:42;14.50;55.80
423;DHT22;198;48.752;9.180;2023-04-08T11:33:08;14.60;55.80
423;DHT22;198;48.752;9.180;2023-04-08T11:35:33;14.80;56.30
423;DHT22;198;48.752;9.180;2023-04-08T11:38:01;14.90;56.40
423;DHT22;198;48.752;9.180;2023-04-08T11:40:28;15.20;56.40
423;DHT22;198;48.752;9.180;2023-04-08T11:42:54;15.20;54.50
423;DHT22;198;48.752;9.180;2023-04-08T11:45:20;15.10;54.40
423;DHT22;198;48.752;9.180;2023-04-08T11:47:47;15.00;55.50
423;DHT22;198;48.752;9.180;2023-04-08T11:50:25;15.00;55.60
423;DHT22;198;48.752;9.180;2023-04-08T11:52:52;14.80;54.30
423;DHT22;198;48.752;9.180;2023-04-08T11:57:51;14.80;55.00
423;DHT22;198;48.752;9.180;2023-04-08T12:00:17;14.80;55.40
423;DHT22;198;48.752;9.180;2023-04-08T12:02:44;14.90;55.60
423;DHT22;198;48.752;9.180;2023-04-08T12:05:09;15.00;55.50
423;DHT22;198;48.752;9.180;2023-04-08T12:07:36;14.90;54.60
423;DHT22;198;48.752;9.180;2023-04-08T12:10:01;14.80;55.40
423;DHT22;198;48.752;9.180;2023-04-08T12:12:27;14.80;56.10
423;DHT22;198;48.752;9.180;2023-04-08T12:14:52;15.00;55.30
423;DHT22;198;48.752;9.180;2023-04-08T12:17:18;15.00;55.80
423;DHT22;198;48.752;9.180;2023-04-08T12:19:44;15.00;56.00
423;DHT22;198;48.752;9.180;2023-04-08T12:22:10;15.10;55.70
423;DHT22;198;48.752;9.180;2023-04-08T12:24:36;15.10;55.40
423;DHT22;198;48.752;9.180;2023-04-08T12:27:01;15.00;56.00
423;DHT22;198;48.752;9.180;2023-04-08T12:29:29;15.10;56.30
423;DHT22;198;48.752;9.180;2023-04-08T12:31:54;15.10;56.40
423;DHT22;198;48.752;9.180;2023-04-08T12:34:20;15.00;56.60
423;DHT22;198;48.752;9.180;2023-04-08T12:36:45;14.90;56.10
423;DHT22;198;48.752;9.180;2023-04-08T12:39:12;14.80;57.20
423;DHT22;198;48.752;9.180;2023-04-08T12:41:38;15.10;56.60
423;DHT22;198;48.752;9.180;2023-04-08T12:44:03;15.30;55.40
423;DHT22;198;48.752;9.180;2023-04-08T12:46:29;15.30;56.10
423;DHT22;198;48.752;9.180;2023-04-08T12:48:55;15.50;56.10
423;DHT22;198;48.752;9.180;2023-04-08T12:51:20;15.60;55.90
423;DHT22;198;48.752;9.180;2023-04-08T12:53:46;15.50;55.20
423;DHT22;198;48.752;9.180;2023-04-08T12:56:11;15.50;55.30
423;DHT22;198;48.752;9.180;2023-04-08T12:58:37;15.60;55.30
423;DHT22;198;48.752;9.180;2023-04-08T13:01:03;15.60;54.70
423;DHT22;198;48.752;9.180;2023-04-08T13:03:28;15.60;55.10
423;DHT22;198;48.752;9.180;2023-04-08T13:05:56;15.50;55.10
423;DHT22;198;48.752;9.180;2023-04-08T13:08:23;15.30;54.60
423;DHT22;198;48.752;9.180;2023-04-08T13:10:49;15.10;55.70
423;DHT22;198;48.752;9.180;2023-04-08T13:13:14;15.00;55.80
423;DHT22;198;48.752;9.180;2023-04-08T13:15:40;14.80;56.10
423;DHT22;198;48.752;9.180;2023-04-08T13:18:06;14.60;55.90
423;DHT22;198;48.752;9.180;2023-04-08T13:20:32;14.40;56.80
423;DHT22;198;48.752;9.180;2023-04-08T13:22:57;14.10;56.50
423;DHT22;198;48.752;9.180;2023-04-08T13:25:24;14.00;56.60
423;DHT22;198;48.752;9.180;2023-04-08T13:27:50;13.90;57.20
423;DHT22;198;48.752;9.180;2023-04-08T13:30:15;13.90;58.30
423;DHT22;198;48.752;9.180;2023-04-08T13:32:41;13.90;58.30
423;DHT22;198;48.752;9.180;2023-04-08T13:35:07;13.80;58.00
423;DHT22;198;48.752;9.180;2023-04-08T13:37:32;13.80;58.40
423;DHT22;198;48.752;9.180;2023-04-08T13:39:58;13.90;59.50
423;DHT22;198;48.752;9.180;2023-04-08T13:42:23;13.80;59.40
423;DHT22;198;48.752;9.180;2023-04-08T13:44:49;13.70;59.40
423;DHT22;198;48.752;9.180;2023-04-08T13:47:15;13.70;59.50
423;DHT22;198;48.752;9.180;2023-04-08T13:49:40;13.80;59.80
423;DHT22;198;48.752;9.180;2023-04-08T13:52:06;13.80;60.10
423;DHT22;198;48.752;9.180;2023-04-08T13:54:31;13.90;60.40
423;DHT22;198;48.752;9.180;2023-04-08T13:56:57;13.90;59.40
423;DHT22;198;48.752;9.180;2023-04-08T13:59:22;14.00;60.30
423;DHT22;198;48.752;9.180;2023-04-08T14:01:48;14.00;60.30
423;DHT22;198;48.752;9.180;2023-04-08T14:04:21;14.20;59.60
423;DHT22;198;48.752;9.180;2023-04-08T14:06:47;14.10;59.40
423;DHT22;198;48.752;9.180;2023-04-08T14:09:15;14.30;60.10
423;DHT22;198;48.752;9.180;2023-04-08T14:11:41;14.40;60.70
423;DHT22;198;48.752;9.180;2023-04-08T14:14:06;14.30;60.90
423;DHT22;198;48.752;9.180;2023-04-08T14:16:32;14.40;60.80
423;DHT22;198;48.752;9.180;2023-04-08T14:18:57;14.60;61.40
423;DHT22;198;48.752;9.180;2023-04-08T14:21:23;14.70;59.80
423;DHT22;198;48.752;9.180;2023-04-08T14:23:49;14.80;60.10
423;DHT22;198;48.752;9.180;2023-04-08T14:26:14;14.90;59.40
423;DHT22;198;48.752;9.180;2023-04-08T14:28:40;15.10;59.30
423;DHT22;198;48.752;9.180;2023-04-08T14:31:05;15.20;58.90
423;DHT22;198;48.752;9.180;2023-04-08T14:33:31;15.40;58.60
423;DHT22;198;48.752;9.180;2023-04-08T14:35:57;15.60;58.10
423;DHT22;198;48.752;9.180;2023-04-08T14:38:24;15.70;57.80
423;DHT22;198;48.752;9.180;2023-04-08T14:40:49;15.70;57.50
423;DHT22;198;48.752;9.180;2023-04-08T14:43:15;15.70;57.80
423;DHT22;198;48.752;9.180;2023-04-08T14:45:40;15.60;57.20
423;DHT22;198;48.752;9.180;2023-04-08T14:48:06;15.30;57.80
423;DHT22;198;48.752;9.180;2023-04-08T14:50:32;15.00;57.80
423;DHT22;198;48.752;9.180;2023-04-08T14:52:57;14.80;58.10
423;DHT22;198;48.752;9.180;2023-04-08T14:55:23;14.70;58.80
423;DHT22;198;48.752;9.180;2023-04-08T14:57:49;14.40;58.60
423;DHT22;198;48.752;9.180;2023-04-08T15:00:15;14.30;59.00
423;DHT22;198;48.752;9.180;2023-04-08T15:02:40;14.10;59.50
423;DHT22;198;48.752;9.180;2023-04-08T15:05:06;14.10;59.60
423;DHT22;198;48.752;9.180;2023-04-08T15:07:32;14.00;59.50
423;DHT22;198;48.752;9.180;2023-04-08T15:09:58;14.00;59.60
423;DHT22;198;48.752;9.180;2023-04-08T15:12:23;14.00;59.70
423;DHT22;198;48.752;9.180;2023-04-08T15:14:49;14.00;60.10
423;DHT22;198;48.752;9.180;2023-04-08T15:17:15;14.10;59.90
423;DHT22;198;48.752;9.180;2023-04-08T15:19:41;14.10;61.00
423;DHT22;198;48.752;9.180;2023-04-08T15:22:06;14.10;59.70
423;DHT22;198;48.752;9.180;2023-04-08T15:24:32;14.10;59.50
423;DHT22;198;48.752;9.180;2023-04-08T15:26:57;14.10;59.50
423;DHT22;198;48.752;9.180;2023-04-08T15:29:23;14.10;59.40
423;DHT22;198;48.752;9.180;2023-04-08T15:31:48;14.10;59.10
423;DHT22;198;48.752;9.180;2023-04-08T15:34:14;14.20;59.40
423;DHT22;198;48.752;9.180;2023-04-08T15:36:42;14.30;59.20
423;DHT22;198;48.752;9.180;2023-04-08T15:39:09;14.30;58.80
423;DHT22;198;48.752;9.180;2023-04-08T15:41:35;14.50;59.00
423;DHT22;198;48.752;9.180;2023-04-08T15:44:01;14.60;58.80
423;DHT22;198;48.752;9.180;2023-04-08T15:46:26;14.60;58.70
423;DHT22;198;48.752;9.180;2023-04-08T15:48:52;14.50;58.70
423;DHT22;198;48.752;9.180;2023-04-08T15:51:18;14.30;58.60
423;DHT22;198;48.752;9.180;2023-04-08T15:53:44;14.30;58.80
423;DHT22;198;48.752;9.180;2023-04-08T15:56:14;14.10;59.40
423;DHT22;198;48.752;9.180;2023-04-08T15:58:40;13.90;60.30
423;DHT22;198;48.752;9.180;2023-04-08T16:01:06;13.80;60.90
423;DHT22;198;48.752;9.180;2023-04-08T16:03:31;13.70;62.10
423;DHT22;198;48.752;9.180;2023-04-08T16:05:57;13.60;62.70
423;DHT22;198;48.752;9.180;2023-04-08T16:08:22;13.40;62.90
423;DHT22;198;48.752;9.180;2023-04-08T16:10:48;13.20;64.10
423;DHT22;198;48.752;9.180;2023-04-08T16:13:14;13.10;64.60
423;DHT22;198;48.752;9.180;2023-04-08T16:15:39;13.10;65.50
423;DHT22;198;48.752;9.180;2023-04-08T16:18:05;13.00;65.80
423;DHT22;198;48.752;9.180;2023-04-08T16:20:32;13.00;66.20
423;DHT22;198;48.752;9.180;2023-04-08T16:23:00;12.80;66.20
423;DHT22;198;48.752;9.180;2023-04-08T16:25:26;12.70;67.00
423;DHT22;198;48.752;9.180;2023-04-08T16:27:51;12.60;67.10
423;DHT22;198;48.752;9.180;2023-04-08T16:30:17;12.70;68.80
423;DHT22;198;48.752;9.180;2023-04-08T16:32:43;12.60;68.10
423;DHT22;198;48.752;9.180;2023-04-08T16:35:09;12.60;68.00
423;DHT22;198;48.752;9.180;2023-04-08T16:37:34;12.50;68.40
423;DHT22;198;48.752;9.180;2023-04-08T16:40:00;12.50;69.30
423;DHT22;198;48.752;9.180;2023-04-08T16:42:27;12.50;69.60
423;DHT22;198;48.752;9.180;2023-04-08T16:44:56;12.40;69.80
423;DHT22;198;48.752;9.180;2023-04-08T16:47:22;12.30;70.10
423;DHT22;198;48.752;9.180;2023-04-08T16:49:49;12.20;70.60
423;DHT22;198;48.752;9.180;2023-04-08T16:52:15;12.00;71.70
423;DHT22;198;48.752;9.180;2023-04-08T16:54:40;11.90;72.10
423;DHT22;198;48.752;9.180;2023-04-08T16:57:08;11.90;72.80
423;DHT22;198;48.752;9.180;2023-04-08T16:59:34;11.80;73.70
423;DHT22;198;48.752;9.180;2023-04-08T17:01:59;11.70;74.20
423;DHT22;198;48.752;9.180;2023-04-08T17:04:25;11.70;75.70
423;DHT22;198;48.752;9.180;2023-04-08T17:06:50;11.70;76.20
423;DHT22;198;48.752;9.180;2023-04-08T17:09:16;11.60;76.10
423;DHT22;198;48.752;9.180;2023-04-08T17:11:42;11.50;77.20